createdAt,value
2017-11-12T01:09:58.864Z,46.06
2017-11-12T01:12:30.286Z,46.09
2017-11-12T02:00:44.899Z,46.15
2017-11-12T02:21:32.847Z,46.29
2017-11-12T03:00:34.177Z,46.64
2017-11-12T03:03:07.195Z,46.53
2017-11-12T03:05:40.460Z,46.43
2017-11-12T03:08:19.568Z,46.36
2017-11-12T03:20:09.679Z,46.17
2017-11-12T03:22:45.557Z,46.13
2017-11-12T03:25:18.085Z,46.09
2017-11-12T03:32:23.893Z,46.11
2017-11-12T03:57:34.895Z,46.53
2017-11-12T04:00:12.737Z,46.52
2017-11-12T04:02:45.863Z,46.59
2017-11-12T04:10:10.160Z,46.53
2017-11-12T04:17:25.934Z,46.47
2017-11-12T04:20:07.006Z,46.33
2017-11-12T04:22:39.788Z,46.26
2017-11-12T04:25:11.774Z,46.19
2017-11-12T04:36:50.397Z,46.07
2017-11-12T04:57:40.525Z,46.31
2017-11-12T05:00:12.805Z,46.28
2017-11-12T05:07:18.720Z,46.28
2017-11-12T06:03:42.925Z,45.98
2017-11-12T06:06:16.034Z,46.00
2017-11-12T06:08:56.040Z,45.95
2017-11-12T06:11:42.170Z,45.97
2017-11-12T06:14:17.673Z,45.99
2017-11-12T06:16:54.019Z,45.96
2017-11-12T06:19:27.870Z,46.04
2017-11-12T06:31:15.567Z,46.32
2017-11-12T06:33:48.816Z,46.29
2017-11-12T06:40:57.676Z,46.07
2017-11-12T06:43:29.938Z,45.94
2017-11-12T06:46:02.473Z,45.84
2017-11-12T06:48:47.068Z,45.72
2017-11-12T06:51:25.859Z,45.55
2017-11-12T06:58:36.066Z,45.35
2017-11-12T07:22:52.277Z,45.73
2017-11-12T07:29:56.085Z,45.60
2017-11-12T07:55:33.040Z,45.66
2017-11-12T07:58:17.590Z,45.53
2017-11-12T08:26:52.363Z,44.20
2017-11-12T08:29:24.250Z,44.14
2017-11-12T08:36:34.701Z,44.12
2017-11-12T08:39:08.741Z,44.08
2017-11-12T08:41:54.478Z,44.08
2017-11-12T08:44:32.408Z,44.04
2017-11-12T08:47:07.949Z,44.03
2017-11-12T08:49:50.537Z,44.00
2017-11-12T08:52:24.639Z,43.94
2017-11-12T08:54:58.458Z,43.83
2017-11-12T08:57:30.630Z,43.77
2017-11-12T09:00:12.130Z,43.69
2017-11-12T09:02:44.869Z,43.60
2017-11-12T09:05:17.916Z,43.50
2017-11-12T09:07:53.126Z,43.48
2017-11-12T09:10:42.654Z,43.54
2017-11-12T09:13:39.772Z,43.63
2017-11-12T09:16:15.442Z,43.63
2017-11-12T09:18:47.348Z,43.59
2017-11-12T09:21:20.145Z,43.47
2017-11-12T09:28:32.742Z,43.20
2017-11-12T09:35:52.964Z,43.13
2017-11-12T09:38:28.754Z,43.08
2017-11-12T09:43:58.774Z,43.01
2017-11-12T09:46:33.707Z,42.99
2017-11-12T09:49:06.963Z,43.03
2017-11-12T09:54:34.376Z,43.04
2017-11-12T09:57:08.489Z,43.06
2017-11-12T09:59:45.181Z,43.13
2017-11-12T10:02:23.622Z,43.26
2017-11-12T10:05:00.176Z,43.31
2017-11-12T10:07:36.585Z,43.35
2017-11-12T10:10:11.783Z,43.38
2017-11-12T10:17:17.970Z,43.57
2017-11-12T10:19:51.102Z,43.56
2017-11-12T10:25:05.968Z,43.58
2017-11-12T10:27:38.293Z,43.62
2017-11-12T10:30:13.915Z,43.68
2017-11-12T10:32:49.767Z,43.65
2017-11-12T10:38:04.141Z,43.86
2017-11-12T10:40:43.661Z,43.91
2017-11-12T10:43:20.443Z,43.84
2017-11-12T10:46:22.802Z,43.79
2017-11-12T13:22:03.646Z,43.70
2017-11-12T13:24:35.183Z,43.68
2017-11-12T13:27:11.080Z,43.62
2017-11-12T13:29:42.556Z,43.59
2017-11-12T13:32:16.127Z,43.51
2017-11-12T13:34:48.008Z,43.44
2017-11-12T13:37:20.569Z,43.38
2017-11-12T13:39:55.033Z,43.34
2017-11-12T13:42:28.666Z,43.30
2017-11-12T13:45:01.658Z,43.28
2017-11-12T13:47:33.716Z,43.30
2017-11-12T13:50:05.088Z,43.29
2017-11-12T13:52:37.182Z,43.30
2017-11-12T13:55:09.795Z,43.31
2017-11-12T13:57:41.818Z,43.31
2017-11-12T14:00:15.124Z,43.32
2017-11-12T14:02:48.625Z,43.37
2017-11-12T14:05:20.984Z,43.42
2017-11-12T14:07:52.976Z,43.49
2017-11-12T14:10:25.110Z,43.53
2017-11-12T14:12:56.426Z,43.60
2017-11-12T14:15:27.824Z,43.67
2017-11-12T14:17:59.339Z,43.71
2017-11-12T14:20:31.238Z,43.77
2017-11-12T14:23:04.813Z,43.82
2017-11-12T14:25:36.784Z,43.80
2017-11-12T14:31:01.212Z,43.94
2017-11-12T14:33:32.908Z,44.03
2017-11-12T14:36:08.668Z,44.10
2017-11-12T14:38:39.846Z,44.13
2017-11-12T14:41:11.368Z,44.12
2017-11-12T14:43:42.705Z,44.10
2017-11-12T14:46:15.563Z,44.12
2017-11-12T14:48:47.680Z,44.06
2017-11-12T14:51:19.051Z,44.03
2017-11-12T14:53:51.236Z,43.99
2017-11-12T14:56:23.183Z,43.96
2017-11-12T14:58:54.997Z,43.91
2017-11-12T15:01:27.820Z,43.88
2017-11-12T15:04:04.028Z,43.83
2017-11-12T15:06:36.594Z,43.84
2017-11-12T15:09:08.864Z,43.81
2017-11-12T15:11:40.886Z,43.82
2017-11-12T15:14:13.597Z,43.83
2017-11-12T15:16:45.488Z,43.85
2017-11-12T15:19:17.913Z,43.88
2017-11-12T15:21:50.065Z,43.90
2017-11-12T15:24:21.672Z,43.93
2017-11-12T15:26:53.852Z,43.95
2017-11-12T15:29:27.458Z,44.02
2017-11-12T15:31:59.592Z,44.06
2017-11-12T15:34:31.692Z,44.12
2017-11-12T15:37:03.908Z,44.17
2017-11-12T15:39:35.451Z,44.20
2017-11-12T15:42:07.036Z,44.25
2017-11-12T15:44:39.466Z,44.31
2017-11-12T15:47:13.361Z,44.32
2017-11-12T15:49:45.002Z,44.34
2017-11-12T15:52:17.176Z,44.38
2017-11-12T15:54:49.188Z,44.46
2017-11-12T15:57:21.138Z,44.51
2017-11-12T15:59:52.370Z,44.50
2017-11-12T16:02:24.104Z,44.51
2017-11-12T16:04:55.335Z,44.50
2017-11-12T16:07:29.027Z,44.49
2017-11-12T16:10:01.390Z,44.42
2017-11-12T16:12:47.692Z,44.35
2017-11-12T16:15:19.932Z,44.31
2017-11-12T16:17:54.510Z,44.28
2017-11-12T16:20:31.341Z,44.21
2017-11-12T16:23:06.380Z,44.14
2017-11-12T16:25:39.122Z,44.05
2017-11-12T16:28:11.221Z,44.07
2017-11-12T18:35:22.965Z,45.18
2017-11-12T18:38:15.010Z,45.09
2017-11-12T18:41:08.133Z,45.01
2017-11-12T18:43:50.826Z,44.88
2017-11-12T18:46:30.769Z,44.75
2017-11-12T18:49:05.407Z,44.61
2017-11-12T18:51:41.241Z,44.50
2017-11-12T18:54:16.548Z,44.46
2017-11-12T18:56:57.181Z,44.38
2017-11-12T18:59:33.139Z,44.33
2017-11-12T19:02:10.795Z,44.29
2017-11-12T19:07:26.373Z,44.20
2017-11-12T19:10:04.024Z,44.19
2017-11-12T19:12:38.645Z,44.24
2017-11-12T19:15:17.700Z,44.22
2017-11-12T19:17:56.408Z,44.28
2017-11-12T19:20:29.724Z,44.30
2017-11-12T19:23:05.426Z,44.35
2017-11-12T19:25:40.408Z,44.38
2017-11-12T19:28:14.342Z,44.42
2017-11-12T19:30:47.610Z,44.48
2017-11-12T19:33:21.625Z,44.49
2017-11-12T19:35:55.029Z,44.53
2017-11-12T19:38:52.578Z,44.52
2017-11-12T19:45:45.412Z,44.57
2017-11-12T19:48:16.944Z,44.60
2017-11-12T19:50:48.629Z,44.63
2017-11-12T19:53:19.930Z,44.63
2017-11-12T19:59:12.551Z,44.64
2017-11-12T20:45:51.378Z,44.81
2017-11-12T20:48:48.726Z,44.79
2017-11-12T21:34:27.602Z,44.76
2017-11-12T21:37:59.245Z,44.69
2017-11-12T21:40:57.216Z,44.63
2017-11-12T21:52:31.311Z,44.50
2017-11-12T21:55:08.460Z,44.54
2017-11-12T21:57:46.542Z,44.60
2017-11-12T22:00:19.134Z,44.68
2017-11-12T22:02:52.136Z,44.67
2017-11-12T22:05:24.709Z,44.76
2017-11-12T22:07:57.783Z,44.78
2017-11-12T22:10:35.056Z,44.78
2017-11-12T22:13:16.958Z,44.80
2017-11-12T22:15:55.701Z,44.83
2017-11-12T22:18:33.893Z,44.89
2017-11-12T22:21:05.787Z,44.91
2017-11-12T22:23:44.562Z,44.86
2017-11-12T22:26:23.070Z,44.83
2017-11-12T22:29:13.266Z,44.73
2017-11-12T22:35:08.993Z,44.66
2017-11-12T22:37:43.616Z,44.59
2017-11-12T22:40:16.974Z,44.51
2017-11-12T22:42:52.284Z,44.44
2017-11-12T22:45:24.062Z,44.36
2017-11-12T22:48:02.141Z,44.36
2017-11-12T22:50:37.784Z,44.27
2017-11-12T22:53:10.371Z,44.27
2017-11-12T22:55:42.679Z,44.25
2017-11-12T22:58:22.787Z,44.25
2017-11-12T23:01:08.104Z,44.29
2017-11-12T23:03:56.931Z,44.36
2017-11-12T23:06:51.617Z,44.40
2017-11-12T23:10:01.916Z,44.41
2017-11-12T23:15:25.017Z,44.50
2017-11-12T23:17:56.809Z,44.57
2017-11-12T23:20:35.372Z,44.49
2017-11-12T23:23:13.381Z,44.51
2017-11-12T23:25:47.544Z,44.60
2017-11-12T23:28:19.468Z,44.61
2017-11-12T23:30:53.843Z,44.63
2017-11-12T23:33:26.001Z,44.75
2017-11-12T23:35:58.646Z,44.73
2017-11-12T23:41:33.316Z,44.71
2017-11-12T23:46:52.636Z,44.59
2017-11-12T23:49:47.699Z,44.47
2017-11-12T23:55:06.199Z,44.32
2017-11-12T23:57:38.091Z,44.29
